createdAt,value
2022-07-27T00:00:05.831Z,19.45
2022-07-27T00:05:27.713Z,19.36
2022-07-27T00:10:50.524Z,19.40
2022-07-27T00:16:12.508Z,19.24
2022-07-27T00:21:34.405Z,19.33
2022-07-27T00:26:59.422Z,19.29
2022-07-27T00:32:21.252Z,18.95
2022-07-27T00:37:43.080Z,19.14
2022-07-27T00:43:04.969Z,19.15
2022-07-27T00:48:27.280Z,19.03
2022-07-27T00:53:51.229Z,19.07
2022-07-27T00:59:14.507Z,18.91
2022-07-27T01:04:37.323Z,19.04
2022-07-27T01:10:00.018Z,18.73
2022-07-27T01:15:22.283Z,18.80
2022-07-27T01:20:44.110Z,18.84
2022-07-27T01:26:05.966Z,18.67
2022-07-27T01:31:28.998Z,18.92
2022-07-27T01:36:52.126Z,18.48
2022-07-27T01:42:13.946Z,18.83
2022-07-27T01:47:35.790Z,18.75
2022-07-27T01:52:57.632Z,18.83
2022-07-27T01:58:19.631Z,18.36
2022-07-27T02:03:41.487Z,18.67
2022-07-27T02:09:03.551Z,18.70
2022-07-27T02:14:25.427Z,18.44
2022-07-27T02:19:47.290Z,18.40
2022-07-27T02:25:10.328Z,18.40
2022-07-27T02:30:32.455Z,18.29
2022-07-27T02:35:54.309Z,18.19
2022-07-27T02:41:16.152Z,18.02
2022-07-27T02:46:38.048Z,18.14
2022-07-27T02:51:59.934Z,18.14
2022-07-27T02:57:21.748Z,18.28
2022-07-27T03:02:47.771Z,18.32
2022-07-27T03:08:09.759Z,18.41
2022-07-27T03:13:31.938Z,18.44
2022-07-27T03:18:53.800Z,19.09
2022-07-27T03:24:15.589Z,19.10
2022-07-27T03:29:37.443Z,19.10
2022-07-27T03:34:59.295Z,18.70
2022-07-27T03:40:21.374Z,18.72
2022-07-27T03:45:43.298Z,18.68
2022-07-27T03:51:05.338Z,18.73
2022-07-27T03:56:27.191Z,18.80
2022-07-27T04:01:48.986Z,18.88
2022-07-27T04:07:10.814Z,18.76
2022-07-27T04:12:32.766Z,18.96
2022-07-27T04:17:57.952Z,19.05
2022-07-27T04:23:19.887Z,18.97
2022-07-27T04:28:41.806Z,18.88
2022-07-27T04:34:03.612Z,18.98
2022-07-27T04:39:25.422Z,19.68
2022-07-27T04:44:47.219Z,21.78
2022-07-27T04:50:09.119Z,24.84
2022-07-27T04:55:30.911Z,30.55
2022-07-27T05:00:52.746Z,26.56
2022-07-27T05:06:14.607Z,26.73
2022-07-27T05:11:36.448Z,31.28
2022-07-27T05:16:58.392Z,33.95
2022-07-27T05:22:20.230Z,34.20
2022-07-27T05:27:54.061Z,32.76
2022-07-27T05:33:16.656Z,33.57
2022-07-27T05:38:39.750Z,31.26
2022-07-27T05:44:01.549Z,31.56
2022-07-27T05:49:23.539Z,31.05
2022-07-27T05:54:45.401Z,31.96
2022-07-27T06:00:08.909Z,32.69
2022-07-27T06:05:30.746Z,32.64
2022-07-27T06:10:52.591Z,33.11
2022-07-27T06:16:14.448Z,33.53
2022-07-27T06:21:36.518Z,34.28
2022-07-27T06:26:58.357Z,34.82
2022-07-27T06:32:20.187Z,34.86
2022-07-27T06:37:42.030Z,32.78
2022-07-27T06:43:03.985Z,35.12
2022-07-27T06:48:26.190Z,33.88
2022-07-27T06:53:47.997Z,35.07
2022-07-27T06:59:10.149Z,36.09
2022-07-27T07:04:32.247Z,37.22
2022-07-27T07:09:54.135Z,37.72
2022-07-27T07:15:15.946Z,38.24
2022-07-27T07:20:38.441Z,38.53
2022-07-27T07:26:00.304Z,39.15
2022-07-27T07:31:22.145Z,39.26
2022-07-27T07:36:44.010Z,39.57
2022-07-27T07:42:05.824Z,39.08
2022-07-27T07:47:32.983Z,38.44
2022-07-27T07:52:55.232Z,39.89
2022-07-27T07:58:17.082Z,37.87
2022-07-27T08:03:39.053Z,35.63
2022-07-27T08:09:00.903Z,35.83
2022-07-27T08:14:22.859Z,37.61
2022-07-27T08:19:44.771Z,38.37
2022-07-27T08:25:08.260Z,37.77
2022-07-27T08:30:30.474Z,39.26
2022-07-27T08:35:54.853Z,38.62
2022-07-27T08:41:22.193Z,38.56
2022-07-27T08:46:44.953Z,38.03
2022-07-27T08:52:09.281Z,37.81
2022-07-27T08:57:31.163Z,35.48
2022-07-27T09:02:53.261Z,34.79
2022-07-27T09:08:17.552Z,34.29
2022-07-27T09:13:39.316Z,31.50
2022-07-27T09:19:08.409Z,32.26
2022-07-27T09:24:46.133Z,31.86
2022-07-27T09:30:16.272Z,31.43
2022-07-27T09:35:38.174Z,30.59
2022-07-27T09:41:01.409Z,30.32
2022-07-27T09:46:40.846Z,30.89
2022-07-27T09:52:04.517Z,29.96
2022-07-27T09:57:26.516Z,28.42
2022-07-27T10:02:49.715Z,29.71
2022-07-27T10:08:11.752Z,29.58
2022-07-27T10:13:43.459Z,29.57
2022-07-27T10:19:08.592Z,28.96
2022-07-27T10:24:32.474Z,29.55
2022-07-27T10:29:55.425Z,29.76
2022-07-27T10:35:46.747Z,29.30
2022-07-27T10:41:28.391Z,29.40
2022-07-27T10:47:04.253Z,28.29
2022-07-27T10:53:02.603Z,27.41
2022-07-27T10:58:24.360Z,27.70
2022-07-27T11:03:47.053Z,27.78
2022-07-27T11:14:53.223Z,26.88
2022-07-27T11:20:15.048Z,27.06
2022-07-27T11:25:36.956Z,27.43
2022-07-27T11:31:03.194Z,26.77
2022-07-27T11:36:42.575Z,27.46
2022-07-27T11:42:09.011Z,26.05
2022-07-27T11:47:34.343Z,27.05
2022-07-27T11:53:01.443Z,27.38
2022-07-27T11:58:23.767Z,27.04
2022-07-27T12:03:46.998Z,27.11
2022-07-27T12:09:13.095Z,26.92
2022-07-27T12:14:42.586Z,27.17
2022-07-27T12:20:09.502Z,27.27
2022-07-27T12:25:31.313Z,27.70
2022-07-27T12:30:53.254Z,28.12
2022-07-27T12:36:25.986Z,27.60
2022-07-27T12:41:47.814Z,27.38
2022-07-27T12:47:10.698Z,26.66
2022-07-27T12:52:34.558Z,26.49
2022-07-27T12:57:57.228Z,26.71
2022-07-27T13:03:19.344Z,27.07
2022-07-27T13:08:41.152Z,26.66
2022-07-27T13:14:02.988Z,26.54
2022-07-27T13:19:24.848Z,26.69
2022-07-27T13:24:46.700Z,26.57
2022-07-27T13:30:11.509Z,26.53
2022-07-27T13:35:33.393Z,26.05
2022-07-27T13:40:55.382Z,26.78
2022-07-27T13:46:17.267Z,27.16
2022-07-27T13:51:39.564Z,27.01
2022-07-27T13:57:01.387Z,26.54
2022-07-27T14:02:25.204Z,26.25
2022-07-27T14:07:47.754Z,26.39
2022-07-27T14:13:12.345Z,26.46
2022-07-27T14:18:34.725Z,26.58
2022-07-27T14:23:56.537Z,26.71
2022-07-27T14:29:19.228Z,26.31
2022-07-27T14:34:41.091Z,26.53
2022-07-27T14:40:05.089Z,26.21
2022-07-27T14:45:45.141Z,25.86
2022-07-27T14:51:08.205Z,25.30
2022-07-27T14:56:30.051Z,25.44
2022-07-27T15:01:51.990Z,25.74
2022-07-27T15:07:13.961Z,26.17
2022-07-27T15:12:38.033Z,26.31
2022-07-27T15:18:00.074Z,26.12
2022-07-27T15:23:21.917Z,26.04
2022-07-27T15:28:44.057Z,26.27
2022-07-27T15:34:05.962Z,26.07
2022-07-27T15:39:27.784Z,26.06
2022-07-27T15:44:49.635Z,25.57
2022-07-27T15:50:11.493Z,25.79
2022-07-27T15:55:33.806Z,25.40
2022-07-27T16:00:57.684Z,25.43
2022-07-27T16:06:20.204Z,25.04
2022-07-27T16:11:42.177Z,24.89
2022-07-27T16:17:04.045Z,25.31
2022-07-27T16:22:25.864Z,25.59
2022-07-27T16:27:47.669Z,25.61
2022-07-27T16:33:09.503Z,24.82
2022-07-27T16:38:31.429Z,24.67
2022-07-27T16:43:53.301Z,24.82
2022-07-27T16:49:15.876Z,24.92
2022-07-27T16:54:39.855Z,24.96
2022-07-27T17:00:01.911Z,24.87
2022-07-27T17:05:24.078Z,24.70
2022-07-27T17:10:46.136Z,24.64
2022-07-27T17:16:10.157Z,24.72
2022-07-27T17:21:32.015Z,24.58
2022-07-27T17:26:53.895Z,24.40
2022-07-27T17:32:15.825Z,24.14
2022-07-27T17:38:03.350Z,23.74
2022-07-27T17:43:19.581Z,23.60
2022-07-27T17:48:41.516Z,23.45
2022-07-27T17:54:03.576Z,23.33
2022-07-27T17:59:37.444Z,23.29
2022-07-27T18:04:59.659Z,23.26
2022-07-27T18:10:21.679Z,23.05
2022-07-27T18:15:43.634Z,23.09
2022-07-27T18:21:05.893Z,23.10
2022-07-27T18:26:27.731Z,23.12
2022-07-27T18:31:49.574Z,22.94
2022-07-27T18:37:11.400Z,22.67
2022-07-27T18:42:33.239Z,22.55
2022-07-27T18:47:55.073Z,22.33
2022-07-27T18:58:38.797Z,22.10
2022-07-27T19:04:02.673Z,21.97
2022-07-27T19:09:25.203Z,21.87
2022-07-27T19:14:50.290Z,21.77
2022-07-27T19:20:13.828Z,21.67
2022-07-27T19:25:35.657Z,21.61
2022-07-27T19:30:57.549Z,21.52
2022-07-27T19:36:20.311Z,21.44
2022-07-27T19:41:42.570Z,21.35
2022-07-27T19:47:04.484Z,21.18
2022-07-27T19:52:26.332Z,21.10
2022-07-27T19:57:48.138Z,20.91
2022-07-27T20:03:09.944Z,20.96
2022-07-27T20:08:31.766Z,20.81
2022-07-27T20:13:53.748Z,20.87
2022-07-27T20:19:15.832Z,20.71
2022-07-27T20:24:38.227Z,20.67
2022-07-27T20:30:00.059Z,20.61
2022-07-27T20:35:22.007Z,20.38
2022-07-27T20:40:43.894Z,20.26
2022-07-27T20:46:05.837Z,20.22
2022-07-27T20:51:27.731Z,20.12
2022-07-27T20:56:49.573Z,19.99
2022-07-27T21:02:11.430Z,19.84
2022-07-27T21:07:33.412Z,19.75
2022-07-27T21:12:55.255Z,19.71
2022-07-27T21:18:17.141Z,19.68
2022-07-27T21:23:39.022Z,19.54
2022-07-27T21:29:00.836Z,19.36
2022-07-27T21:34:24.775Z,19.41
2022-07-27T21:39:46.582Z,19.36
2022-07-27T21:45:08.821Z,19.26
2022-07-27T21:50:30.683Z,19.32
2022-07-27T21:55:52.567Z,19.35
2022-07-27T22:01:15.911Z,19.33
2022-07-27T22:06:39.783Z,19.21
2022-07-27T22:12:01.629Z,19.00
2022-07-27T22:17:23.440Z,18.94
2022-07-27T22:22:45.526Z,18.87
2022-07-27T22:28:07.556Z,18.65
2022-07-27T22:33:29.403Z,18.60
2022-07-27T22:38:51.221Z,18.44
2022-07-27T22:44:13.393Z,18.28
2022-07-27T22:49:38.217Z,18.12
2022-07-27T22:55:01.379Z,18.01
2022-07-27T23:00:23.243Z,17.89
2022-07-27T23:05:45.065Z,17.76
2022-07-27T23:11:06.985Z,17.61
2022-07-27T23:16:29.049Z,17.55
2022-07-27T23:21:51.748Z,17.48
2022-07-27T23:27:15.711Z,17.28
2022-07-27T23:32:37.552Z,17.18
2022-07-27T23:37:59.419Z,17.08
2022-07-27T23:43:21.273Z,16.99
2022-07-27T23:48:43.103Z,16.84
2022-07-27T23:54:05.236Z,16.81
2022-07-27T23:59:27.129Z,16.76
